Shirley, Pennsylvania
Current Conditions -  °F | °C
As of 7:53 PM on Monday 26 Jan 2015 (Local Time) from KAOO Reporting Station
Light Snow Light Snow  
Wind Chill: 21°   Ceiling: 3200
Heat Index: 21°   Visibility: 2mi
Dew Point: 19°   Wind: 3mph
Humidity: 92%   Direction: 360°N
Pressure: 29.77"   Gusts: NA
Location:  40.4281°N, 77.8329°W
Report Text: KAOO 270053Z AUTO 36003KT 2SM -SN BR OVC032 M06/M07 A2977 RMK AO2 SLP105 P0000 T10611072
Loading
Personal Weather Stations






























Interactive Weather Map New forecast layout! Learn more

10-Day Weather Forecast

Advertisements
Track Severe Weather on mobile